Terminal Aerodrome Forecast
Issued by NWS Atlanta, GA

Current Version | Previous Version | Text Only | Print | Product List | Glossary On
Versions: 1 2 3 4 5 6 7 8 9 10 11 12 13 14 15 16 17
000
FTUS42 KFFC 300900 AAB
TAFCSG
TAF AMD
KCSG 300958Z 3010/3106 00000KT P6SM BKN012
     FM301500 19006KT P6SM VCSH SCT025 BKN050 PROB30 3019/3023 6SM
      TSRA BKN045CB
     FM310200 00000KT P6SM BKN045=

USA.gov is the U.S. government's official web portal to all federal, state and local government web resources and services.